createdAt,value
2019-01-24T00:00:13.703Z,100309.30
2019-01-24T00:02:44.620Z,100315.35
2019-01-24T00:05:15.950Z,100318.66
2019-01-24T00:07:47.157Z,100317.75
2019-01-24T00:10:18.233Z,100318.58
2019-01-24T00:12:49.216Z,100320.66
2019-01-24T00:15:20.263Z,100324.44
2019-01-24T00:17:51.228Z,100326.17
2019-01-24T00:20:22.300Z,100321.04
2019-01-24T00:22:53.315Z,100321.92
2019-01-24T00:25:24.379Z,100317.50
2019-01-24T00:27:55.342Z,100320.38
2019-01-24T00:30:26.342Z,100324.63
2019-01-24T00:32:57.253Z,100328.86
2019-01-24T00:35:28.162Z,100316.97
2019-01-24T00:37:59.120Z,100339.87
2019-01-24T00:40:30.355Z,100332.27
2019-01-24T00:43:01.556Z,100334.92
2019-01-24T00:45:32.529Z,100342.94
2019-01-24T00:48:03.520Z,100338.27
2019-01-24T00:50:34.448Z,100338.13
2019-01-24T00:53:05.482Z,100336.84
2019-01-24T00:55:36.397Z,100343.35
2019-01-24T00:58:07.325Z,100336.98
2019-01-24T01:00:38.489Z,100345.00
2019-01-24T01:03:09.419Z,100353.11
2019-01-24T01:05:40.336Z,100352.19
2019-01-24T01:08:11.306Z,100354.09
2019-01-24T01:10:42.306Z,100356.94
2019-01-24T01:13:13.373Z,100355.59
2019-01-24T01:15:44.655Z,100357.70
2019-01-24T01:18:15.578Z,100358.13
2019-01-24T01:20:46.525Z,100365.36
2019-01-24T01:23:17.488Z,100366.31
2019-01-24T01:25:48.425Z,100366.69
2019-01-24T01:28:19.373Z,100364.34
2019-01-24T01:30:50.399Z,100371.17
2019-01-24T01:33:21.348Z,100371.84
2019-01-24T01:35:52.323Z,100372.69
2019-01-24T01:38:23.598Z,100379.91
2019-01-24T01:40:54.486Z,100387.36
2019-01-24T01:43:25.391Z,100383.73
2019-01-24T01:45:56.401Z,100374.17
2019-01-24T01:48:27.380Z,100378.64
2019-01-24T01:50:58.308Z,100380.72
2019-01-24T01:53:29.311Z,100375.70
2019-01-24T01:56:00.206Z,100383.42
2019-01-24T01:58:31.126Z,100386.03
2019-01-24T02:01:02.383Z,100375.38
2019-01-24T02:03:33.290Z,100376.72
2019-01-24T02:06:04.320Z,100378.86
2019-01-24T02:08:35.649Z,100380.40
2019-01-24T02:11:07.061Z,100379.42
2019-01-24T02:13:38.029Z,100386.91
2019-01-24T02:16:09.305Z,100383.87
2019-01-24T02:18:40.242Z,100383.29
2019-01-24T02:21:11.443Z,100385.25
2019-01-24T02:23:42.724Z,100385.30
2019-01-24T02:26:14.051Z,100384.85
2019-01-24T02:28:45.111Z,100381.06
2019-01-24T02:31:16.093Z,100387.82
2019-01-24T02:33:46.998Z,100384.06
2019-01-24T02:36:17.915Z,100390.38
2019-01-24T02:38:48.907Z,100391.62
2019-01-24T02:41:20.163Z,100387.23
2019-01-24T02:43:51.073Z,100386.91
2019-01-24T02:46:22.351Z,100384.77
2019-01-24T02:48:53.602Z,100382.06
2019-01-24T02:51:24.562Z,100376.68
2019-01-24T02:53:55.566Z,100378.90
2019-01-24T02:56:26.939Z,100381.61
2019-01-24T02:58:57.897Z,100392.44
2019-01-24T03:01:29.201Z,100389.84
2019-01-24T03:04:00.727Z,100392.30
2019-01-24T03:06:31.800Z,100394.09
2019-01-24T03:09:02.771Z,100391.70
2019-01-24T03:11:34.042Z,100386.25
2019-01-24T03:14:05.462Z,100380.19
2019-01-24T03:16:36.585Z,100378.14
2019-01-24T03:19:07.497Z,100383.20
2019-01-24T03:21:38.823Z,100384.47
2019-01-24T03:24:09.941Z,100382.84
2019-01-24T03:26:40.865Z,100376.61
2019-01-24T03:29:12.079Z,100380.84
2019-01-24T03:31:43.053Z,100379.18
2019-01-24T03:34:13.962Z,100386.70
2019-01-24T03:36:44.867Z,100380.98
2019-01-24T03:39:15.814Z,100381.27
2019-01-24T03:41:46.759Z,100388.50
2019-01-24T03:44:17.978Z,100384.09
2019-01-24T03:46:49.016Z,100395.45
2019-01-24T03:49:19.929Z,100391.05
2019-01-24T03:51:50.840Z,100394.62
2019-01-24T03:54:22.131Z,100401.08
2019-01-24T03:56:53.070Z,100403.16
2019-01-24T03:59:24.277Z,100394.22
2019-01-24T04:01:55.518Z,100393.50
2019-01-24T04:04:26.445Z,100390.62
2019-01-24T04:06:57.465Z,100394.86
2019-01-24T04:09:28.436Z,100394.79
2019-01-24T04:11:59.406Z,100387.41
2019-01-24T04:14:30.406Z,100390.28
2019-01-24T04:17:01.761Z,100388.77
2019-01-24T04:19:32.775Z,100387.05
2019-01-24T04:22:03.740Z,100389.66
2019-01-24T04:24:34.711Z,100389.20
2019-01-24T04:27:05.689Z,100393.40
2019-01-24T04:29:36.964Z,100380.98
2019-01-24T04:32:07.954Z,100378.11
2019-01-24T04:34:38.892Z,100379.73
2019-01-24T04:37:09.840Z,100389.87
2019-01-24T04:39:40.909Z,100387.44
2019-01-24T04:42:11.843Z,100392.47
2019-01-24T04:44:42.775Z,100395.80
2019-01-24T04:47:14.369Z,100400.14
2019-01-24T04:49:45.316Z,100398.35
2019-01-24T04:52:16.228Z,100408.12
2019-01-24T04:54:47.671Z,100404.67
2019-01-24T04:57:18.587Z,100408.86
2019-01-24T04:59:49.522Z,100415.16
2019-01-24T05:02:20.475Z,100419.84
2019-01-24T05:04:51.374Z,100418.13
2019-01-24T05:07:22.295Z,100419.03
2019-01-24T05:09:53.254Z,100421.94
2019-01-24T05:12:24.191Z,100428.35
2019-01-24T05:14:55.163Z,100423.73
2019-01-24T05:17:26.428Z,100423.30
2019-01-24T05:19:57.646Z,100427.09
2019-01-24T05:22:28.579Z,100433.35
2019-01-24T05:24:59.524Z,100436.78
2019-01-24T05:27:30.838Z,100430.80
2019-01-24T05:30:02.100Z,100435.02
2019-01-24T05:32:33.098Z,100432.90
2019-01-24T05:35:04.449Z,100434.16
2019-01-24T05:37:35.408Z,100444.44
2019-01-24T05:40:07.595Z,100444.38
2019-01-24T05:42:38.575Z,100439.28
2019-01-24T05:45:10.209Z,100446.53
2019-01-24T05:47:41.183Z,100450.31
2019-01-24T05:50:12.657Z,100452.33
2019-01-24T05:52:43.684Z,100445.24
2019-01-24T05:55:15.037Z,100442.20
2019-01-24T05:57:46.012Z,100438.84
2019-01-24T06:00:25.686Z,100442.71
2019-01-24T06:02:57.252Z,100441.83
2019-01-24T06:05:28.232Z,100445.55
2019-01-24T06:07:59.269Z,100447.33
2019-01-24T06:10:30.477Z,100450.83
2019-01-24T06:13:01.419Z,100459.30
2019-01-24T06:15:32.432Z,100455.94
2019-01-24T06:18:03.467Z,100464.84
2019-01-24T06:20:34.386Z,100470.45
2019-01-24T06:23:05.478Z,100468.86
2019-01-24T06:25:36.552Z,100479.23
2019-01-24T06:28:08.125Z,100475.16
2019-01-24T06:30:39.126Z,100481.88
2019-01-24T06:33:10.081Z,100479.78
2019-01-24T06:35:41.100Z,100482.77
2019-01-24T06:38:12.397Z,100486.11
2019-01-24T06:40:43.366Z,100491.56
2019-01-24T06:43:15.256Z,100494.98
2019-01-24T06:45:46.306Z,100493.75
2019-01-24T06:48:17.313Z,100489.03
2019-01-24T06:50:48.257Z,100495.33
2019-01-24T06:53:19.554Z,100493.34
2019-01-24T06:55:50.754Z,100494.55
2019-01-24T06:58:21.714Z,100486.20
2019-01-24T07:00:52.787Z,100494.77
2019-01-24T07:03:23.739Z,100491.25
2019-01-24T07:05:55.525Z,100491.91
2019-01-24T07:08:26.694Z,100488.20
2019-01-24T07:10:57.648Z,100489.11
2019-01-24T07:13:28.622Z,100491.55
2019-01-24T07:15:59.596Z,100498.20
2019-01-24T07:18:30.632Z,100493.64
2019-01-24T07:21:01.828Z,100498.80
2019-01-24T07:23:32.787Z,100504.54
2019-01-24T07:26:03.711Z,100508.59
2019-01-24T07:28:34.644Z,100510.42
2019-01-24T07:31:05.753Z,100510.91
2019-01-24T07:33:36.651Z,100510.72
2019-01-24T07:36:07.991Z,100515.95
2019-01-24T07:38:38.959Z,100523.47
2019-01-24T07:41:10.160Z,100529.86
2019-01-24T07:43:41.078Z,100532.73
2019-01-24T07:46:12.423Z,100532.41
2019-01-24T07:48:43.352Z,100537.44
2019-01-24T07:51:14.629Z,100542.70
2019-01-24T07:53:46.461Z,100541.84
2019-01-24T07:56:17.412Z,100538.98
2019-01-24T07:58:48.658Z,100536.29
2019-01-24T08:01:19.940Z,100537.73
2019-01-24T08:03:50.949Z,100531.95
2019-01-24T08:06:22.001Z,100533.20
2019-01-24T08:08:52.975Z,100540.25
2019-01-24T08:11:24.219Z,100541.16
2019-01-24T08:13:55.132Z,100548.50
2019-01-24T08:16:26.109Z,100554.03
2019-01-24T08:18:57.337Z,100550.69
2019-01-24T08:21:28.294Z,100552.98
2019-01-24T08:23:59.218Z,100550.58
2019-01-24T08:26:30.194Z,100552.57
2019-01-24T08:29:01.424Z,100541.83
2019-01-24T08:31:32.353Z,100551.76
2019-01-24T08:34:03.324Z,100548.05
2019-01-24T08:36:34.248Z,100549.83
2019-01-24T08:39:08.877Z,100557.44
2019-01-24T08:41:39.789Z,100551.73
2019-01-24T08:44:10.746Z,100561.06
2019-01-24T08:46:41.965Z,100562.06
2019-01-24T08:49:12.947Z,100568.30
2019-01-24T08:51:44.240Z,100565.41
2019-01-24T08:54:15.166Z,100557.01
2019-01-24T08:56:46.078Z,100554.10
2019-01-24T08:59:17.028Z,100566.78
2019-01-24T09:01:47.934Z,100563.33
2019-01-24T09:04:18.972Z,100572.31
2019-01-24T09:06:49.942Z,100572.75
2019-01-24T09:09:20.852Z,100576.66
2019-01-24T09:11:51.799Z,100572.70
2019-01-24T09:14:22.726Z,100577.83
2019-01-24T09:16:53.718Z,100575.63
2019-01-24T09:19:24.666Z,100570.78
2019-01-24T09:21:55.605Z,100575.87
2019-01-24T09:24:26.855Z,100577.56
2019-01-24T09:26:57.871Z,100585.01
2019-01-24T09:29:28.925Z,100590.16
2019-01-24T09:32:00.156Z,100588.75
2019-01-24T09:34:31.105Z,100598.85
2019-01-24T09:37:02.022Z,100598.91
2019-01-24T09:39:32.923Z,100601.39
2019-01-24T09:42:03.857Z,100604.94
2019-01-24T09:44:34.769Z,100604.87
2019-01-24T09:47:05.820Z,100599.92
2019-01-24T09:49:36.740Z,100599.14
2019-01-24T09:52:07.663Z,100600.46
2019-01-24T09:54:38.618Z,100605.11
2019-01-24T09:57:09.546Z,100609.84
2019-01-24T09:59:40.511Z,100605.22
2019-01-24T10:02:11.761Z,100612.41
2019-01-24T10:04:42.703Z,100614.55
2019-01-24T10:07:13.743Z,100610.76
2019-01-24T10:09:44.986Z,100604.84
2019-01-24T10:12:15.967Z,100607.80
2019-01-24T10:14:46.865Z,100603.54
2019-01-24T10:17:17.777Z,100602.27
2019-01-24T10:19:48.804Z,100608.56
2019-01-24T10:22:19.738Z,100608.59
2019-01-24T10:24:51.029Z,100611.57
2019-01-24T10:27:21.943Z,100606.53
2019-01-24T10:29:53.213Z,100594.67
2019-01-24T10:32:24.457Z,100593.40
2019-01-24T10:34:55.376Z,100604.40
2019-01-24T10:37:26.421Z,100599.75
2019-01-24T10:39:57.406Z,100604.42
2019-01-24T10:42:28.303Z,100605.72
2019-01-24T10:44:59.536Z,100593.81
2019-01-24T10:47:30.492Z,100593.40
2019-01-24T10:50:01.468Z,100600.59
2019-01-24T10:52:32.393Z,100597.64
2019-01-24T10:55:03.300Z,100597.20
2019-01-24T10:57:34.629Z,100598.91
2019-01-24T11:00:08.554Z,100595.97
2019-01-24T11:02:39.633Z,100592.56
2019-01-24T11:05:12.789Z,100594.68
2019-01-24T11:07:43.809Z,100589.61
2019-01-24T11:10:16.411Z,100587.03
2019-01-24T11:12:47.902Z,100592.55
2019-01-24T11:15:21.700Z,100582.80
2019-01-24T11:17:52.991Z,100581.92
2019-01-24T11:20:24.103Z,100585.36
2019-01-24T11:22:55.096Z,100584.92
2019-01-24T11:25:26.189Z,100585.77
2019-01-24T11:27:57.461Z,100584.03
2019-01-24T11:30:29.731Z,100585.34
2019-01-24T11:33:01.446Z,100587.05
2019-01-24T11:35:34.973Z,100583.66
2019-01-24T11:38:07.226Z,100586.19
2019-01-24T11:40:38.264Z,100594.69
2019-01-24T11:43:09.416Z,100591.69
2019-01-24T11:45:44.300Z,100590.44
2019-01-24T11:48:15.509Z,100584.08
2019-01-24T11:50:46.417Z,100586.60
2019-01-24T11:53:17.377Z,100585.36
2019-01-24T11:55:48.303Z,100578.16
2019-01-24T11:58:19.517Z,100571.36
2019-01-24T12:00:52.774Z,100569.23
2019-01-24T12:03:23.993Z,100571.34
2019-01-24T12:05:54.997Z,100567.11
2019-01-24T12:08:26.337Z,100561.16
2019-01-24T12:10:57.274Z,100561.14
2019-01-24T12:13:28.206Z,100565.38
2019-01-24T12:15:59.488Z,100563.66
2019-01-24T12:18:30.393Z,100566.67
2019-01-24T12:21:01.363Z,100566.28
2019-01-24T12:23:32.363Z,100570.09
2019-01-24T12:26:03.388Z,100563.30
2019-01-24T12:28:34.630Z,100568.38
2019-01-24T12:31:05.593Z,100573.03
2019-01-24T12:33:36.523Z,100569.22
2019-01-24T12:36:07.623Z,100570.51
2019-01-24T12:38:38.593Z,100578.55
2019-01-24T12:41:09.550Z,100575.98
2019-01-24T12:43:40.489Z,100568.74
2019-01-24T12:46:11.455Z,100573.43
2019-01-24T12:48:42.726Z,100571.77
2019-01-24T12:51:13.670Z,100570.52
2019-01-24T12:53:44.646Z,100568.80
2019-01-24T12:56:15.631Z,100581.97
2019-01-24T12:58:46.571Z,100582.39
2019-01-24T13:01:18.209Z,100575.18
2019-01-24T13:03:49.140Z,100576.45
2019-01-24T13:06:20.239Z,100576.45
2019-01-24T13:08:51.495Z,100570.52
2019-01-24T13:11:22.689Z,100575.17
2019-01-24T13:13:53.612Z,100576.02
2019-01-24T13:16:24.614Z,100573.91
2019-01-24T13:18:55.554Z,100581.92
2019-01-24T13:21:27.867Z,100580.23
2019-01-24T13:23:59.176Z,100584.95
2019-01-24T13:26:30.105Z,100587.89
2019-01-24T13:29:01.021Z,100581.93
2019-01-24T13:31:32.086Z,100584.48
2019-01-24T13:34:03.020Z,100582.38
2019-01-24T13:36:33.940Z,100578.56
2019-01-24T13:39:10.133Z,100582.38
2019-01-24T13:41:42.561Z,100588.31
2019-01-24T13:44:14.945Z,100579.84
2019-01-24T13:46:46.158Z,100582.81
2019-01-24T13:49:17.057Z,100581.12
2019-01-24T13:51:48.299Z,100578.98
2019-01-24T13:54:19.815Z,100584.07
2019-01-24T13:56:50.745Z,100580.25
2019-01-24T13:59:22.044Z,100581.94
2019-01-24T14:01:53.074Z,100580.27
2019-01-24T14:04:39.564Z,100588.33
2019-01-24T14:07:11.135Z,100593.81
2019-01-24T14:09:42.037Z,100592.54
2019-01-24T14:12:13.178Z,100596.79
2019-01-24T14:14:46.192Z,100596.81
2019-01-24T14:17:17.188Z,100602.75
2019-01-24T14:19:48.141Z,100603.59
2019-01-24T14:22:19.084Z,100601.47
2019-01-24T14:24:50.622Z,100604.84
2019-01-24T14:27:21.581Z,100605.70
2019-01-24T14:29:52.502Z,100601.88
2019-01-24T14:32:23.572Z,100607.41
2019-01-24T14:34:56.504Z,100608.66
2019-01-24T14:37:27.525Z,100609.94
2019-01-24T14:39:58.856Z,100607.81
2019-01-24T14:42:30.086Z,100603.59
2019-01-24T14:45:01.087Z,100611.64
2019-01-24T14:47:32.054Z,100604.41
2019-01-24T14:50:02.985Z,100605.27
2019-01-24T14:52:33.947Z,100599.36
2019-01-24T14:55:05.562Z,100601.88
2019-01-24T14:57:36.500Z,100606.56
2019-01-24T15:00:42.983Z,100606.55
2019-01-24T15:03:13.904Z,100609.94
2019-01-24T15:05:45.124Z,100618.36
2019-01-24T15:08:16.115Z,100615.88
2019-01-24T15:10:47.009Z,100620.06
2019-01-24T15:13:18.205Z,100618.81
2019-01-24T15:15:49.166Z,100626.38
2019-01-24T15:18:20.235Z,100624.28
2019-01-24T15:20:51.242Z,100617.97
2019-01-24T15:23:22.237Z,100627.25
2019-01-24T15:25:53.189Z,100625.98
2019-01-24T15:28:24.167Z,100626.38
2019-01-24T15:30:55.281Z,100631.91
2019-01-24T15:33:26.560Z,100636.52
2019-01-24T15:35:57.599Z,100639.92
2019-01-24T15:38:28.595Z,100639.89
2019-01-24T15:40:59.609Z,100650.92
2019-01-24T15:43:30.509Z,100653.82
2019-01-24T15:46:01.700Z,100657.67
2019-01-24T15:48:32.754Z,100662.27
2019-01-24T15:51:03.700Z,100663.96
2019-01-24T15:53:34.701Z,100668.23
2019-01-24T15:56:05.779Z,100675.39
2019-01-24T15:58:36.756Z,100676.29
2019-01-24T16:01:07.950Z,100676.67
2019-01-24T16:03:39.194Z,100677.11
2019-01-24T16:06:10.126Z,100681.31
2019-01-24T16:08:41.452Z,100686.33
2019-01-24T16:11:12.515Z,100683.80
2019-01-24T16:13:43.511Z,100685.07
2019-01-24T16:16:14.635Z,100682.19
2019-01-24T16:18:45.960Z,100679.27
2019-01-24T16:21:16.887Z,100688.16
2019-01-24T16:23:48.503Z,100686.83
2019-01-24T16:26:19.426Z,100687.21
2019-01-24T16:28:50.406Z,100686.02
2019-01-24T16:31:21.643Z,100695.64
2019-01-24T16:33:52.884Z,100702.46
2019-01-24T16:36:23.811Z,100706.79
2019-01-24T16:38:54.809Z,100711.47
2019-01-24T16:41:26.003Z,100711.42
2019-01-24T16:43:58.724Z,100711.91
2019-01-24T16:46:29.715Z,100716.55
2019-01-24T16:49:00.773Z,100714.02
2019-01-24T16:51:31.792Z,100716.61
2019-01-24T16:54:02.853Z,100719.11
2019-01-24T16:56:33.809Z,100719.03
2019-01-24T16:59:08.627Z,100727.94
2019-01-24T17:01:39.682Z,100727.94
2019-01-24T17:04:10.689Z,100723.69
2019-01-24T17:06:41.670Z,100718.71
2019-01-24T17:09:13.422Z,100730.14
2019-01-24T17:11:44.354Z,100729.27
2019-01-24T17:14:22.143Z,100729.72
2019-01-24T17:16:47.984Z,100724.66
2019-01-24T17:19:18.917Z,100731.41
2019-01-24T17:21:49.869Z,100734.45
2019-01-24T17:24:22.472Z,100736.12
2019-01-24T17:26:53.865Z,100734.85
2019-01-24T17:29:24.790Z,100736.12
2019-01-24T17:31:55.765Z,100731.69
2019-01-24T17:34:26.728Z,100741.08
2019-01-24T17:36:57.697Z,100741.47
2019-01-24T17:39:28.680Z,100738.09
2019-01-24T17:41:59.751Z,100740.25
2019-01-24T17:44:30.658Z,100739.44
2019-01-24T17:47:01.588Z,100736.06
2019-01-24T17:49:32.595Z,100744.56
2019-01-24T17:52:03.619Z,100746.23
2019-01-24T17:54:34.512Z,100745.78
2019-01-24T17:57:05.510Z,100752.14
2019-01-24T17:59:37.567Z,100752.13
2019-01-24T18:02:08.677Z,100750.33
2019-01-24T18:04:41.441Z,100750.42
2019-01-24T18:07:12.376Z,100753.02
2019-01-24T18:09:43.291Z,100755.11
2019-01-24T18:12:14.601Z,100759.37
2019-01-24T18:14:45.505Z,100756.34
2019-01-24T18:17:19.295Z,100758.78
2019-01-24T18:19:50.208Z,100760.89
2019-01-24T18:22:23.202Z,100757.95
2019-01-24T18:24:54.167Z,100752.56
2019-01-24T18:27:25.740Z,100759.23
2019-01-24T18:29:56.714Z,100760.08
2019-01-24T18:32:28.428Z,100762.16
2019-01-24T18:34:59.363Z,100758.42
2019-01-24T18:37:32.509Z,100765.41
2019-01-24T18:40:03.961Z,100763.53
2019-01-24T18:42:35.497Z,100762.00
2019-01-24T18:45:09.595Z,100762.97
2019-01-24T18:47:40.881Z,100771.67
2019-01-24T18:50:17.001Z,100774.32
2019-01-24T18:52:51.954Z,100774.22
2019-01-24T18:55:23.291Z,100773.49
2019-01-24T18:58:01.467Z,100774.23
2019-01-24T19:00:37.933Z,100779.23
2019-01-24T19:03:10.238Z,100791.42
2019-01-24T19:05:43.818Z,100785.98
2019-01-24T19:08:15.236Z,100792.22
2019-01-24T19:10:47.803Z,100795.12
2019-01-24T19:13:19.215Z,100800.22
2019-01-24T19:15:52.241Z,100804.50
2019-01-24T19:18:24.414Z,100807.48
2019-01-24T19:20:56.300Z,100805.59
2019-01-24T19:23:27.353Z,100809.84
2019-01-24T19:25:58.808Z,100805.03
2019-01-24T19:28:29.713Z,100806.28
2019-01-24T19:31:01.170Z,100813.09
2019-01-24T19:33:33.955Z,100818.28
2019-01-24T19:36:04.992Z,100817.30
2019-01-24T19:38:35.977Z,100816.81
2019-01-24T19:41:07.425Z,100823.55
2019-01-24T19:43:38.433Z,100824.42
2019-01-24T19:46:09.983Z,100824.80
2019-01-24T19:48:41.466Z,100823.24
2019-01-24T19:51:16.104Z,100823.55
2019-01-24T19:53:47.922Z,100829.50
2019-01-24T19:56:18.966Z,100831.96
2019-01-24T19:58:50.009Z,100836.56
2019-01-24T20:01:21.256Z,100831.92
2019-01-24T20:03:52.544Z,100829.59
2019-01-24T20:06:23.597Z,100824.42
2019-01-24T20:09:00.196Z,100828.38
2019-01-24T20:11:28.034Z,100829.98
2019-01-24T20:13:59.639Z,100834.16
2019-01-24T20:16:30.565Z,100835.78
2019-01-24T20:19:02.840Z,100845.53
2019-01-24T20:21:33.862Z,100842.69
2019-01-24T20:24:06.355Z,100847.28
2019-01-24T20:26:37.384Z,100847.64
2019-01-24T20:29:10.414Z,100848.47
2019-01-24T20:31:41.433Z,100854.80
2019-01-24T20:34:13.729Z,100849.34
2019-01-24T20:36:44.891Z,100854.42
2019-01-24T20:39:15.834Z,100846.27
2019-01-24T20:41:46.782Z,100846.72
2019-01-24T20:44:18.122Z,100848.40
2019-01-24T20:46:49.446Z,100847.62
2019-01-24T20:49:20.571Z,100840.91
2019-01-24T20:51:52.386Z,100845.42
2019-01-24T20:54:23.952Z,100847.84
2019-01-24T20:56:55.093Z,100842.84
2019-01-24T20:59:26.654Z,100843.19
2019-01-24T21:01:57.722Z,100841.00
2019-01-24T21:04:28.689Z,100844.29
2019-01-24T21:06:59.978Z,100841.84
2019-01-24T21:09:30.993Z,100841.39
2019-01-24T21:12:02.554Z,100847.34
2019-01-24T21:14:33.553Z,100847.30
2019-01-24T21:17:04.904Z,100853.34
2019-01-24T21:19:35.991Z,100856.63
2019-01-24T21:22:09.640Z,100853.36
2019-01-24T21:24:42.541Z,100856.42
2019-01-24T21:27:13.592Z,100859.28
2019-01-24T21:29:44.807Z,100858.70
2019-01-24T21:32:15.752Z,100860.86
2019-01-24T21:34:46.754Z,100856.57
2019-01-24T21:37:17.684Z,100854.44
2019-01-24T21:39:48.668Z,100856.56
2019-01-24T21:42:19.575Z,100861.22
2019-01-24T21:44:50.496Z,100855.70
2019-01-24T21:47:21.505Z,100858.33
2019-01-24T21:49:52.444Z,100856.14
2019-01-24T21:52:23.476Z,100856.12
2019-01-24T21:54:54.407Z,100857.81
2019-01-24T21:57:25.354Z,100852.92
2019-01-24T21:59:56.310Z,100854.96
2019-01-24T22:02:27.369Z,100858.80
2019-01-24T22:04:58.324Z,100854.95
2019-01-24T22:07:29.544Z,100854.05
2019-01-24T22:10:00.457Z,100855.91
2019-01-24T22:12:31.711Z,100858.36
2019-01-24T22:15:02.679Z,100853.23
2019-01-24T22:17:33.703Z,100854.19
2019-01-24T22:20:05.781Z,100851.55
2019-01-24T22:22:37.054Z,100850.27
2019-01-24T22:25:11.976Z,100849.92
2019-01-24T22:27:42.894Z,100852.45
2019-01-24T22:30:19.249Z,100853.16
2019-01-24T22:32:50.158Z,100853.57
2019-01-24T22:35:21.073Z,100853.68
2019-01-24T22:37:52.105Z,100868.38
2019-01-24T22:40:23.357Z,100862.47
2019-01-24T22:42:54.316Z,100861.70
2019-01-24T22:45:26.190Z,100866.39
2019-01-24T22:47:57.137Z,100863.40
2019-01-24T22:50:28.308Z,100865.02
2019-01-24T22:52:59.243Z,100864.55
2019-01-24T22:55:30.562Z,100865.42
2019-01-24T22:58:01.551Z,100863.23
2019-01-24T23:00:48.837Z,100864.89
2019-01-24T23:03:27.162Z,100865.05
2019-01-24T23:05:58.227Z,100861.33
2019-01-24T23:08:29.231Z,100862.97
2019-01-24T23:11:00.268Z,100862.84
2019-01-24T23:13:31.198Z,100863.71
2019-01-24T23:16:02.423Z,100854.75
2019-01-24T23:18:33.358Z,100861.88
2019-01-24T23:21:04.889Z,100862.68
2019-01-24T23:23:35.811Z,100861.41
2019-01-24T23:26:07.200Z,100869.44
2019-01-24T23:28:38.397Z,100861.95
2019-01-24T23:31:09.671Z,100864.42
2019-01-24T23:33:40.869Z,100862.33
2019-01-24T23:36:11.958Z,100865.30
2019-01-24T23:38:43.613Z,100864.02
2019-01-24T23:41:14.810Z,100864.08
2019-01-24T23:43:45.768Z,100864.44
2019-01-24T23:46:16.683Z,100872.43
2019-01-24T23:48:47.593Z,100864.16
2019-01-24T23:51:18.572Z,100867.03
2019-01-24T23:53:49.514Z,100871.19
2019-01-24T23:56:20.545Z,100868.63
2019-01-24T23:58:51.804Z,100870.98
